Anderson, Missouri
Current Conditions -  °F | °C
As of 4:55 PM on Tuesday 27 Jan 2015 (Local Time) from KGMJ Reporting Station
Clear Clear  
Wind Chill: 20°   Ceiling: Unl
Heat Index: 20°   Visibility: 10mi
Dew Point:   Wind: 0mph
Humidity: 26%   Direction: NA
Pressure: 30.1"   Gusts: NA
Location:  36.65°N, 94.44°W
Report Text: KGMJ 272255Z AUTO 00000KT 10SM CLR 20/00 A3010 RMK AO2
Loading
Personal Weather Stations






























Interactive Weather Map New forecast layout! Learn more

10-Day Weather Forecast

Advertisements
Track Severe Weather on mobile